Time;durP1;ratioP1;P1;durP2;ratioP2;P2;SDS_P1;SDS_P2;PMS_P1;PMS_P2;Temp;Humidity;BMP_temperature;BMP_pressure;BME280_temperature;BME280_humidity;BME280_pressure;Samples;Min_cycle;Max_cycle;Signal;HPM_P1;HPM_P2
2023/02/05 00:01:08;;;;;;;8.82;4.10;;;;;;;-2.19;70.76;100168.47;5048291;28;20052;-84
2023/02/05 00:03:35;;;;;;;13.90;5.03;;;;;;;-2.21;70.68;100160.53;5048441;28;20450;-84
2023/02/05 00:06:00;;;;;;;8.95;4.88;;;;;;;-2.23;70.82;100167.13;5048003;28;20025;-86
2023/02/05 00:08:29;;;;;;;9.25;4.85;;;;;;;-2.21;70.79;100168.59;5048686;28;20342;-85
2023/02/05 00:10:54;;;;;;;7.75;4.13;;;;;;;-2.20;70.85;100172.97;5048056;28;20473;-86
2023/02/05 00:13:20;;;;;;;10.07;5.15;;;;;;;-2.19;71.07;100163.09;5048642;28;20056;-88
2023/02/05 00:15:45;;;;;;;9.55;4.50;;;;;;;-2.17;70.80;100178.00;5046828;28;20021;-86
2023/02/05 00:18:11;;;;;;;9.20;4.68;;;;;;;-2.17;71.36;100164.56;5047125;28;20032;-83
2023/02/05 00:20:36;;;;;;;11.13;4.95;;;;;;;-2.21;71.21;100163.25;5048206;28;20478;-85
2023/02/05 00:23:02;;;;;;;9.57;4.57;;;;;;;-2.18;71.18;100178.19;5047655;28;20114;-85
2023/02/05 00:25:28;;;;;;;11.43;5.63;;;;;;;-2.20;71.40;100178.34;5046496;28;20105;-85
2023/02/05 00:27:53;;;;;;;9.93;4.38;;;;;;;-2.22;71.33;100177.69;5048301;28;20025;-82
2023/02/05 00:30:19;;;;;;;8.27;4.20;;;;;;;-2.22;71.30;100172.31;5048649;28;20041;-84
2023/02/05 00:32:44;;;;;;;9.35;4.72;;;;;;;-2.22;71.35;100175.00;5049127;28;20036;-82
2023/02/05 00:35:10;;;;;;;11.13;4.95;;;;;;;-2.22;71.65;100175.00;5047722;28;20116;-81
2023/02/05 00:37:35;;;;;;;9.57;4.45;;;;;;;-2.22;71.51;100166.09;5046860;28;20095;-84
2023/02/05 00:40:01;;;;;;;7.28;4.15;;;;;;;-2.17;72.04;100171.81;5050104;28;20397;-88
2023/02/05 00:42:27;;;;;;;9.65;4.50;;;;;;;-2.22;71.71;100166.94;5052801;28;20123;-87
2023/02/05 00:44:52;;;;;;;9.65;4.78;;;;;;;-2.22;71.75;100166.94;5053283;28;20035;-87
2023/02/05 00:47:18;;;;;;;10.13;4.60;;;;;;;-2.21;71.96;100170.47;5052942;28;20021;-87
2023/02/05 00:49:43;;;;;;;8.35;4.63;;;;;;;-2.23;71.99;100181.38;5053015;28;20048;-85
2023/02/05 00:52:09;;;;;;;10.15;4.47;;;;;;;-2.23;71.71;100173.31;5052656;28;20100;-87
2023/02/05 00:54:34;;;;;;;10.07;4.20;;;;;;;-2.25;71.82;100170.81;5052858;28;20484;-80
2023/02/05 00:56:59;;;;;;;7.30;3.55;;;;;;;-2.25;72.09;100172.69;5052667;28;20033;-82
2023/02/05 00:59:25;;;;;;;6.88;4.13;;;;;;;-2.25;72.06;100173.50;5053188;28;20025;-80
2023/02/05 01:01:50;;;;;;;11.18;4.68;;;;;;;-2.22;71.87;100175.00;5052599;28;20520;-81
2023/02/05 01:04:15;;;;;;;9.45;4.85;;;;;;;-2.17;71.97;100174.50;5052721;28;20029;-82
2023/02/05 01:06:41;;;;;;;9.63;4.80;;;;;;;-2.16;72.27;100171.63;5051689;28;20028;-84
2023/02/05 01:09:07;;;;;;;8.35;3.97;;;;;;;-2.13;72.12;100181.22;5050852;28;20025;-84
2023/02/05 01:11:33;;;;;;;11.07;4.85;;;;;;;-2.11;72.31;100180.03;5051137;28;20052;-87
2023/02/05 01:13:58;;;;;;;11.18;4.93;;;;;;;-2.10;72.22;100175.50;5051637;28;20063;-86
2023/02/05 01:16:23;;;;;;;10.02;4.28;;;;;;;-2.10;72.15;100187.09;5051055;28;20029;-88
2023/02/05 01:18:49;;;;;;;8.20;4.47;;;;;;;-2.06;72.42;100178.69;5051388;28;20393;-88
2023/02/05 01:21:14;;;;;;;7.63;3.97;;;;;;;-2.04;72.28;100185.59;5049606;28;20033;-83
2023/02/05 01:23:40;;;;;;;9.10;4.78;;;;;;;-2.08;71.83;100178.88;5050815;28;20029;-83
2023/02/05 01:26:06;;;;;;;10.85;4.60;;;;;;;-2.12;72.39;100178.34;5051108;28;20041;-84
2023/02/05 01:28:31;;;;;;;8.48;4.57;;;;;;;-2.19;72.35;100185.41;5051793;28;20025;-82
2023/02/05 01:30:56;;;;;;;9.43;4.68;;;;;;;-2.16;72.46;100189.63;5051365;28;20029;-83
2023/02/05 01:33:22;;;;;;;14.80;7.18;;;;;;;-2.16;72.59;100182.38;5048606;28;20035;-79
2023/02/05 01:35:47;;;;;;;13.90;5.68;;;;;;;-2.10;72.50;100183.56;5049424;28;20036;-78
2023/02/05 01:38:14;;;;;;;12.93;5.80;;;;;;;-2.09;72.80;100190.63;5049588;28;20128;-80
2023/02/05 01:40:40;;;;;;;22.15;9.95;;;;;;;-2.06;72.53;100187.59;5050972;28;20100;-77
2023/02/05 01:43:16;;;;;;;13.48;6.50;;;;;;;-2.03;72.63;100183.72;5050768;28;20031;-78
2023/02/05 01:45:53;;;;;;;10.40;5.45;;;;;;;-1.99;72.75;100188.56;5050887;28;20037;-79
2023/02/05 01:48:23;;;;;;;12.27;6.65;;;;;;;-1.98;72.99;100184.88;5050890;28;20173;-82
2023/02/05 01:51:00;;;;;;;12.40;6.32;;;;;;;-1.96;72.69;100182.84;5050291;28;20428;-83
2023/02/05 01:53:28;;;;;;;9.82;4.68;;;;;;;-1.95;72.74;100183.72;5050957;28;20013;-81
2023/02/05 01:55:58;;;;;;;7.28;4.15;;;;;;;-1.95;72.78;100189.91;5050628;28;20132;-78
2023/02/05 01:58:26;;;;;;;8.30;4.80;;;;;;;-1.98;72.52;100187.56;5050383;28;20102;-80
2023/02/05 02:00:52;;;;;;;8.73;4.63;;;;;;;-1.97;72.75;100191.09;5050160;28;20055;-81
2023/02/05 02:03:17;;;;;;;10.00;5.80;;;;;;;-1.98;72.69;100187.56;5049125;28;20477;-82
2023/02/05 02:05:43;;;;;;;11.00;5.78;;;;;;;-1.97;72.56;100183.03;5048192;28;20032;-83
2023/02/05 02:08:11;;;;;;;11.23;5.65;;;;;;;-1.97;72.94;100188.41;5049920;28;20029;-84
2023/02/05 02:10:38;;;;;;;12.82;5.72;;;;;;;-2.00;72.42;100188.75;5049506;28;20021;-84
2023/02/05 02:13:04;;;;;;;14.73;6.40;;;;;;;-2.00;72.70;100192.28;5049426;28;20485;-81
2023/02/05 02:15:30;;;;;;;13.13;6.60;;;;;;;-2.03;72.77;100184.53;5048868;28;20094;-83
2023/02/05 02:18:24;;;;;;;12.57;6.35;;;;;;;-2.01;72.35;100192.44;5049604;28;20469;-83
2023/02/05 02:20:52;;;;;;;11.15;5.50;;;;;;;-1.99;72.61;100190.44;5048466;28;20029;-83
2023/02/05 02:23:34;;;;;;;11.48;4.93;;;;;;;-1.99;72.58;100185.06;5049520;28;20060;-83
2023/02/05 02:26:22;;;;;;;9.13;5.35;;;;;;;-1.98;72.93;100189.44;5050156;28;20017;-82
2023/02/05 02:28:52;;;;;;;11.15;5.35;;;;;;;-1.97;72.72;100180.34;5049730;28;20477;-83
2023/02/05 02:31:27;;;;;;;;;;;;;;;-1.95;72.71;100187.22;5049600;28;20021;-83
2023/02/05 02:33:59;;;;;;;12.45;5.90;;;;;;;-1.92;72.63;100196.81;5049876;28;19917;-83
2023/02/05 02:36:31;;;;;;;10.45;6.15;;;;;;;-1.94;72.68;100196.13;5048461;28;20052;-83
2023/02/05 02:39:12;;;;;;;10.70;6.32;;;;;;;-1.98;72.47;100202.88;5049370;28;20060;-83
2023/02/05 02:41:44;;;;;;;13.25;6.80;;;;;;;-2.00;72.55;100197.66;5049404;28;20036;-82
2023/02/05 02:44:11;;;;;;;12.88;6.38;;;;;;;-2.00;72.79;100200.34;5047714;28;20502;-86
2023/02/05 02:46:56;;;;;;;12.98;7.18;;;;;;;-2.01;72.69;100197.84;5049526;28;20477;-83
2023/02/05 02:49:27;;;;;;;16.95;8.35;;;;;;;-2.03;72.50;100189.91;5049434;28;20074;-83
2023/02/05 02:51:56;;;;;;;13.88;7.43;;;;;;;-2.04;72.72;100187.41;5049510;28;20107;-83
2023/02/05 02:54:25;;;;;;;13.07;7.15;;;;;;;-2.08;72.65;100189.63;5047950;28;20775;-81
2023/02/05 02:56:51;;;;;;;14.73;8.10;;;;;;;-2.12;72.46;100185.59;5048770;28;20035;-83
2023/02/05 02:59:21;;;;;;;13.60;7.30;;;;;;;-2.14;72.48;100183.06;5049196;28;20029;-82
2023/02/05 03:01:51;;;;;;;16.25;7.65;;;;;;;-2.16;72.44;100178.88;5048898;28;20028;-82
2023/02/05 03:04:38;;;;;;;14.43;7.65;;;;;;;-2.22;72.40;100188.44;5048787;28;20031;-82
2023/02/05 03:07:10;;;;;;;13.07;7.38;;;;;;;-2.21;72.55;100182.06;5049288;28;20027;-83
2023/02/05 03:09:41;;;;;;;11.55;6.38;;;;;;;-2.23;72.63;100188.63;5046805;28;20052;-84
2023/02/05 03:12:06;;;;;;;10.48;5.43;;;;;;;-2.25;72.58;100189.63;5048988;28;20048;-83
2023/02/05 03:14:32;;;;;;;10.25;5.38;;;;;;;-2.25;72.74;100195.00;5049501;28;20054;-83
2023/02/05 03:16:58;;;;;;;10.15;5.55;;;;;;;-2.25;72.70;100195.00;5048905;28;20768;-83
2023/02/05 03:19:23;;;;;;;10.30;5.80;;;;;;;-2.26;72.55;100200.56;5048118;28;20041;-82
2023/02/05 03:21:59;;;;;;;11.50;6.25;;;;;;;-2.29;72.33;100190.16;5047303;28;20095;-82
2023/02/05 03:24:25;;;;;;;10.50;5.72;;;;;;;-2.29;72.37;100200.91;5048112;28;20040;-83
2023/02/05 03:26:50;;;;;;;9.73;5.38;;;;;;;-2.32;72.24;100188.63;5048461;28;20025;-83
2023/02/05 03:29:23;;;;;;;11.43;6.20;;;;;;;-2.37;72.39;100184.78;5049033;28;20017;-83
2023/02/05 03:32:03;;;;;;;11.07;5.38;;;;;;;-2.46;72.24;100192.84;5049047;28;20064;-83
2023/02/05 03:34:50;;;;;;;10.10;5.85;;;;;;;-2.52;72.05;100190.00;5049667;28;20033;-83
2023/02/05 03:37:44;;;;;;;11.07;6.57;;;;;;;-2.59;72.23;100192.47;5049532;28;20045;-83
2023/02/05 03:40:28;;;;;;;10.63;6.45;;;;;;;-2.64;72.16;100184.09;5049239;28;20040;-82
2023/02/05 03:43:24;;;;;;;9.02;5.40;;;;;;;-2.67;71.99;100185.28;5047476;28;20033;-83
2023/02/05 03:45:52;;;;;;;8.65;5.53;;;;;;;-2.72;72.09;100183.09;5048040;28;20060;-83
2023/02/05 03:48:21;;;;;;;8.52;5.13;;;;;;;-2.77;71.89;100185.44;5048101;28;20063;-83
2023/02/05 03:51:22;;;;;;;11.40;6.13;;;;;;;-2.84;72.18;100187.94;5049487;28;20021;-82
2023/02/05 03:54:09;;;;;;;8.98;5.85;;;;;;;-2.88;71.79;100191.13;5046289;28;20521;-82
2023/02/05 03:57:04;;;;;;;10.02;6.03;;;;;;;-2.99;71.93;100198.47;5049218;28;20037;-82
2023/02/05 03:59:32;;;;;;;12.13;6.93;;;;;;;-3.02;71.80;100206.03;5048987;28;20029;-82
2023/02/05 04:01:57;;;;;;;17.88;9.75;;;;;;;-3.05;71.66;100201.00;5048741;28;20029;-82
2023/02/05 04:04:24;;;;;;;19.35;10.80;;;;;;;-3.11;71.97;100210.56;5049119;28;20028;-82
2023/02/05 04:06:52;;;;;;;18.85;10.63;;;;;;;-3.18;71.65;100215.72;5048844;28;20029;-82
2023/02/05 04:09:18;;;;;;;20.33;10.20;;;;;;;-3.24;71.73;100218.22;5049015;28;20029;-82
2023/02/05 04:11:44;;;;;;;23.80;10.93;;;;;;;-3.31;71.47;100212.66;5048913;28;20025;-81
2023/02/05 04:14:09;;;;;;;27.55;10.82;;;;;;;-3.38;71.47;100215.16;5049773;28;20381;-82
2023/02/05 04:16:35;;;;;;;25.52;10.48;;;;;;;-3.44;71.67;100210.41;5053170;28;20037;-83
2023/02/05 04:19:00;;;;;;;32.33;12.40;;;;;;;-3.52;71.46;100213.91;5053131;28;20075;-82
2023/02/05 04:21:26;;;;;;;27.77;11.75;;;;;;;-3.60;71.59;100211.19;5052770;28;20186;-82
2023/02/05 04:23:52;;;;;;;35.90;13.35;;;;;;;-3.67;71.26;100218.22;5053155;28;20077;-82
2023/02/05 04:26:17;;;;;;;33.88;12.82;;;;;;;-3.76;71.56;100218.16;5052684;28;20033;-82
2023/02/05 04:28:42;;;;;;;54.85;17.75;;;;;;;-3.80;71.71;100221.31;5051231;28;20035;-82
2023/02/05 04:31:11;;;;;;;61.38;18.95;;;;;;;-3.87;71.29;100228.34;5052654;28;20068;-81
2023/02/05 04:33:36;;;;;;;37.50;13.40;;;;;;;-3.93;71.30;100233.31;5052921;28;20422;-82
2023/02/05 04:36:02;;;;;;;32.03;12.43;;;;;;;-3.98;71.19;100238.31;5052663;28;20166;-82
2023/02/05 04:38:27;;;;;;;28.33;11.15;;;;;;;-4.02;71.18;100236.94;5051849;28;20041;-82
2023/02/05 04:40:53;;;;;;;21.00;9.95;;;;;;;-4.07;71.52;100232.03;5053366;28;20033;-82
2023/02/05 04:43:18;;;;;;;23.88;10.27;;;;;;;-4.09;71.33;100236.72;5052044;28;20500;-82
2023/02/05 04:45:44;;;;;;;19.80;9.48;;;;;;;-4.10;71.92;100231.50;5053400;28;20108;-82
2023/02/05 04:48:09;;;;;;;23.15;10.52;;;;;;;-4.08;71.33;100232.19;5053601;28;20477;-82
2023/02/05 04:50:37;;;;;;;19.67;10.00;;;;;;;-4.04;71.62;100237.06;5053374;28;20024;-82
2023/02/05 04:53:03;;;;;;;23.17;10.75;;;;;;;-4.03;71.93;100236.09;5053319;28;20025;-82
2023/02/05 04:55:29;;;;;;;21.08;10.15;;;;;;;-4.01;71.71;100240.44;5053796;28;20028;-83
2023/02/05 04:57:54;;;;;;;18.95;9.07;;;;;;;-4.00;71.89;100247.50;5053122;28;20029;-82
2023/02/05 05:00:20;;;;;;;12.43;7.85;;;;;;;-3.99;71.44;100250.03;5052982;28;20543;-82
2023/02/05 05:02:45;;;;;;;15.18;8.18;;;;;;;-3.97;71.65;100247.19;5052973;28;20032;-82
2023/02/05 05:05:11;;;;;;;17.30;7.78;;;;;;;-3.97;71.67;100255.22;5052987;28;20529;-82
2023/02/05 05:07:37;;;;;;;17.35;7.90;;;;;;;-4.00;71.51;100275.16;5053382;28;20052;-81
2023/02/05 05:10:06;;;;;;;17.30;8.68;;;;;;;-4.03;71.76;100257.53;5052762;28;20036;-81
2023/02/05 05:12:34;;;;;;;21.13;9.50;;;;;;;-4.04;71.58;100258.53;5052923;28;20384;-81
2023/02/05 05:15:00;;;;;;;41.83;17.70;;;;;;;-4.08;71.95;100270.59;5053202;28;20029;-81
2023/02/05 05:17:25;;;;;;;57.60;21.98;;;;;;;-4.09;71.97;100270.72;5051954;28;20488;-82
2023/02/05 05:19:50;;;;;;;53.10;18.60;;;;;;;-4.10;71.92;100269.03;5051525;28;20026;-82
2023/02/05 05:22:16;;;;;;;52.90;17.95;;;;;;;-4.13;71.41;100272.03;5052876;28;20389;-82
2023/02/05 05:24:41;;;;;;;57.22;18.25;;;;;;;-4.15;71.47;100276.69;5052824;28;20025;-81
2023/02/05 05:27:07;;;;;;;59.28;20.67;;;;;;;-4.18;71.58;100277.88;5052825;28;20023;-82
2023/02/05 05:29:32;;;;;;;49.35;17.98;;;;;;;-4.23;71.49;100283.66;5051828;28;20166;-82
2023/02/05 05:31:57;;;;;;;58.88;18.70;;;;;;;-4.24;71.15;100281.97;5051325;28;20025;-82
2023/02/05 05:34:23;;;;;;;54.55;18.40;;;;;;;-4.26;71.65;100286.66;5052608;28;20025;-82
2023/02/05 05:36:48;;;;;;;54.70;17.73;;;;;;;-4.27;71.52;100287.66;5052534;28;20108;-81
2023/02/05 05:44:42;;;;;;;51.78;20.60;;;;;;;-4.33;71.20;100304.34;5052279;28;20043;-81
2023/02/05 05:47:07;;;;;;;43.30;16.23;;;;;;;-4.34;71.20;100302.69;5052381;28;20108;-82
2023/02/05 05:49:33;;;;;;;34.55;13.98;;;;;;;-4.31;71.87;100306.88;5052052;28;20065;-82
2023/02/05 05:51:58;;;;;;;39.40;15.68;;;;;;;-4.28;71.58;100317.28;5051616;28;20457;-82
2023/02/05 05:54:23;;;;;;;33.95;14.80;;;;;;;-4.29;71.79;100308.41;5050849;28;20032;-82
2023/02/05 05:56:49;;;;;;;39.40;16.40;;;;;;;-4.29;71.96;100318.28;5051718;28;20028;-82
2023/02/05 05:59:14;;;;;;;51.90;20.52;;;;;;;-4.32;72.07;100319.44;5052039;28;20029;-82
2023/02/05 06:01:40;;;;;;;59.58;21.05;;;;;;;-4.32;71.79;100324.81;5051289;28;20041;-82
2023/02/05 06:04:05;;;;;;;61.70;22.52;;;;;;;-4.35;71.94;100338.50;5051858;28;20056;-82
2023/02/05 06:06:31;;;;;;;60.95;21.95;;;;;;;-4.42;71.51;100330.22;5051458;28;20032;-82
2023/02/05 06:08:57;;;;;;;65.78;21.13;;;;;;;-4.43;71.90;100343.75;5050278;28;20036;-82
2023/02/05 06:11:22;;;;;;;66.45;21.58;;;;;;;-4.46;71.44;100339.53;5050997;28;20458;-82
2023/02/05 06:13:48;;;;;;;61.08;20.00;;;;;;;-4.50;71.86;100341.69;5051678;28;20041;-82
2023/02/05 06:16:14;;;;;;;75.72;22.15;;;;;;;-4.50;71.88;100351.56;5051562;28;20089;-82
2023/02/05 06:18:39;;;;;;;67.78;22.75;;;;;;;-4.51;71.78;100358.75;5052271;28;20025;-82
2023/02/05 06:21:04;;;;;;;60.72;20.38;;;;;;;-4.53;71.69;100365.25;5051579;28;20098;-82
2023/02/05 06:23:31;;;;;;;51.75;17.48;;;;;;;-4.57;71.62;100364.72;5051286;28;20036;-82
2023/02/05 06:25:57;;;;;;;42.90;13.90;;;;;;;-4.58;72.00;100357.66;5050071;28;20503;-82
2023/02/05 06:28:23;;;;;;;25.05;9.45;;;;;;;-4.57;71.56;100363.88;5051454;28;20114;-82
2023/02/05 06:30:48;;;;;;;18.02;7.35;;;;;;;-4.58;71.49;100359.50;5051720;28;20045;-82
2023/02/05 06:33:14;;;;;;;14.60;6.80;;;;;;;-4.59;72.08;100365.88;5051110;28;20028;-82
2023/02/05 06:35:40;;;;;;;14.13;6.28;;;;;;;-4.60;71.83;100365.00;5051374;28;20035;-82
2023/02/05 06:38:05;;;;;;;11.55;5.22;;;;;;;-4.60;72.23;100365.00;5050660;28;20510;-82
2023/02/05 06:40:31;;;;;;;9.23;5.20;;;;;;;-4.60;72.10;100373.03;5051135;28;20106;-82
2023/02/05 06:42:56;;;;;;;10.98;5.90;;;;;;;-4.59;72.30;100379.25;5050639;28;20071;-82
2023/02/05 06:45:22;;;;;;;11.48;5.13;;;;;;;-4.59;71.96;100369.38;5051203;28;20520;-83
2023/02/05 06:47:48;;;;;;;9.75;5.25;;;;;;;-4.56;72.05;100368.25;5051310;28;20478;-82
2023/02/05 06:50:14;;;;;;;11.02;6.00;;;;;;;-4.56;72.23;100369.06;5050951;28;20043;-83
2023/02/05 06:52:39;;;;;;;10.20;5.60;;;;;;;-4.55;71.99;100369.94;5050955;28;20458;-82
2023/02/05 06:55:05;;;;;;;12.50;6.50;;;;;;;-4.54;72.10;100369.75;5049561;28;20033;-81
2023/02/05 06:57:30;;;;;;;10.65;5.93;;;;;;;-4.52;71.80;100367.78;5050913;28;20037;-82
2023/02/05 06:59:57;;;;;;;10.70;5.90;;;;;;;-4.47;72.24;100369.16;5050930;28;20029;-83
2023/02/05 07:02:22;;;;;;;11.23;6.00;;;;;;;-4.44;72.46;100374.22;5050407;28;20068;-83
2023/02/05 07:04:48;;;;;;;12.85;6.55;;;;;;;-4.43;72.46;100373.22;5050768;28;20060;-83
2023/02/05 07:07:15;;;;;;;10.45;6.40;;;;;;;-4.39;72.47;100374.63;5051246;28;20044;-83
2023/02/05 07:09:41;;;;;;;12.55;6.78;;;;;;;-4.38;72.50;100377.13;5051010;28;20037;-84
2023/02/05 07:12:06;;;;;;;13.35;6.72;;;;;;;-4.37;72.56;100383.34;5050099;28;20112;-83
2023/02/05 07:14:36;;;;;;;12.77;7.10;;;;;;;-4.35;72.54;100389.41;5050743;28;20086;-83
2023/02/05 07:17:01;;;;;;;14.57;7.25;;;;;;;-4.34;72.30;100391.91;5049409;28;20436;-83
2023/02/05 07:19:27;;;;;;;11.75;6.72;;;;;;;-4.33;72.60;100392.78;5050731;28;20112;-84
2023/02/05 07:21:52;;;;;;;16.33;7.43;;;;;;;-4.36;72.45;100403.78;5049844;28;20443;-84
2023/02/05 07:24:18;;;;;;;16.30;9.93;;;;;;;-4.35;72.69;100402.78;5050798;28;20056;-83
2023/02/05 07:26:44;;;;;;;16.92;8.13;;;;;;;-4.34;72.32;100410.66;5050835;28;20033;-84
2023/02/05 07:29:09;;;;;;;19.17;10.07;;;;;;;-4.31;72.11;100414.03;5050928;28;20029;-84
2023/02/05 07:31:35;;;;;;;19.95;10.50;;;;;;;-4.30;72.50;100415.72;5049339;28;20032;-83
2023/02/05 07:34:00;;;;;;;23.27;11.85;;;;;;;-4.30;72.37;100419.25;5050903;28;20051;-84
2023/02/05 07:36:26;;;;;;;29.00;12.35;;;;;;;-4.28;72.71;100417.25;5050680;28;20473;-83
2023/02/05 07:38:51;;;;;;;23.50;11.10;;;;;;;-4.25;72.31;100421.47;5050622;28;20075;-84
2023/02/05 07:41:16;;;;;;;30.08;13.57;;;;;;;-4.24;72.45;100423.16;5050579;28;20105;-84
2023/02/05 07:43:42;;;;;;;33.85;13.13;;;;;;;-4.22;72.40;100426.53;5050360;28;20099;-85
2023/02/05 07:46:12;;;;;;;50.85;17.02;;;;;;;-4.18;72.57;100418.03;5050430;28;20116;-85
2023/02/05 07:48:38;;;;;;;53.03;18.27;;;;;;;-4.12;72.90;100421.97;5051045;28;20113;-84
2023/02/05 07:51:06;;;;;;;41.78;15.18;;;;;;;-4.10;72.10;100424.47;5054297;28;20536;-82
2023/02/05 07:53:32;;;;;;;31.75;12.07;;;;;;;-4.08;72.41;100415.31;5054206;28;20089;-83
2023/02/05 07:56:02;;;;;;;33.03;11.68;;;;;;;-4.07;72.79;100411.59;5053875;28;20477;-82
2023/02/05 07:58:27;;;;;;;27.92;10.63;;;;;;;-4.04;72.59;100421.19;5054642;28;20021;-82
2023/02/05 08:00:53;;;;;;;23.15;10.07;;;;;;;-4.01;72.52;100422.72;5054469;28;20401;-84
2023/02/05 08:03:18;;;;;;;25.90;10.95;;;;;;;-3.97;72.53;100426.78;5054319;28;20078;-82
2023/02/05 08:05:44;;;;;;;28.77;11.45;;;;;;;-3.93;72.48;100433.50;5054843;28;20033;-82
2023/02/05 08:08:10;;;;;;;46.10;16.08;;;;;;;-3.91;72.43;100435.06;5054764;28;20028;-81
2023/02/05 08:10:36;;;;;;;57.58;20.60;;;;;;;-3.86;72.77;100425.69;5054389;28;20029;-81
2023/02/05 08:13:01;;;;;;;42.88;15.75;;;;;;;-3.80;72.63;100427.75;5052649;28;20385;-81
2023/02/05 08:15:27;;;;;;;82.40;25.27;;;;;;;-3.76;72.67;100439.88;5053758;28;20035;-81
2023/02/05 08:17:52;;;;;;;181.77;52.65;;;;;;;-3.75;72.31;100437.06;5054284;28;20025;-81
2023/02/05 08:20:18;;;;;;;42.97;16.33;;;;;;;-3.70;72.43;100433.91;5054214;28;20067;-81
2023/02/05 08:22:44;;;;;;;32.67;14.52;;;;;;;-3.68;72.15;100434.59;5054163;28;20031;-81
2023/02/05 08:25:12;;;;;;;28.75;13.30;;;;;;;-3.65;72.51;100444.16;5054076;28;20021;-81
2023/02/05 08:27:40;;;;;;;25.77;10.82;;;;;;;-3.62;71.96;100442.03;5054173;28;20052;-81
2023/02/05 08:30:09;;;;;;;38.85;19.27;;;;;;;-3.61;72.31;100437.47;5053834;28;20044;-82
2023/02/05 08:32:34;;;;;;;64.57;24.55;;;;;;;-3.59;72.28;100451.59;5053805;28;20029;-81
2023/02/05 08:35:00;;;;;;;74.13;20.60;;;;;;;-3.53;72.19;100450.13;5053698;28;20082;-81
2023/02/05 08:37:26;;;;;;;33.20;11.50;;;;;;;-3.50;72.42;100445.28;5053681;28;20045;-82
2023/02/05 08:39:51;;;;;;;34.08;10.10;;;;;;;-3.45;72.13;100447.50;5053958;28;20032;-81
2023/02/05 08:42:17;;;;;;;22.48;8.88;;;;;;;-3.40;72.19;100455.94;5053554;28;20040;-81
2023/02/05 08:44:43;;;;;;;32.75;10.90;;;;;;;-3.33;71.89;100458.84;5053256;28;20108;-81
2023/02/05 08:47:09;;;;;;;26.10;10.68;;;;;;;-3.26;71.85;100451.84;5053832;28;20068;-81
2023/02/05 08:49:34;;;;;;;27.20;12.02;;;;;;;-3.22;72.04;100455.06;5053633;28;20536;-81
2023/02/05 08:51:59;;;;;;;23.02;11.40;;;;;;;-3.14;71.95;100460.50;5053457;28;20465;-80
2023/02/05 08:54:25;;;;;;;17.13;8.68;;;;;;;-3.11;71.76;100459.31;5053290;28;20029;-81
2023/02/05 08:56:51;;;;;;;19.88;10.52;;;;;;;-3.10;71.94;100452.97;5053838;28;20552;-80
2023/02/05 08:59:17;;;;;;;53.85;22.73;;;;;;;-3.10;72.04;100458.31;5053424;28;20069;-80
2023/02/05 09:01:44;;;;;;;35.38;14.73;;;;;;;-3.10;71.78;100464.56;5051261;28;20021;-81
2023/02/05 09:04:14;;;;;;;34.33;14.60;;;;;;;-3.10;71.71;100464.56;5053082;28;20477;-81
2023/02/05 09:06:39;;;;;;;;;;;;;;;-3.06;71.84;100459.69;5053914;28;20029;-81
2023/02/05 09:09:04;;;;;;;18.42;9.43;;;;;;;-3.03;71.48;100468.28;5053448;28;20007;-81
2023/02/05 09:11:30;;;;;;;21.83;9.15;;;;;;;-2.97;71.81;100471.31;5052839;28;20056;-81
2023/02/05 09:13:56;;;;;;;11.73;6.50;;;;;;;-2.91;71.43;100470.69;5053377;28;20033;-81
2023/02/05 09:16:22;;;;;;;17.92;7.22;;;;;;;-2.88;71.25;100473.06;5052995;28;20033;-81
2023/02/05 09:18:47;;;;;;;18.83;8.15;;;;;;;-2.75;71.15;100478.88;5052260;28;20036;-80
2023/02/05 09:21:13;;;;;;;16.05;7.43;;;;;;;-2.62;71.30;100472.19;5053435;28;20036;-80
2023/02/05 09:23:38;;;;;;;15.35;8.32;;;;;;;-2.50;71.33;100476.28;5052108;28;20033;-81
2023/02/05 09:26:05;;;;;;;23.67;10.77;;;;;;;-2.39;71.54;100491.28;5052665;28;20067;-81
2023/02/05 09:28:31;;;;;;;17.20;8.73;;;;;;;-2.30;71.29;100481.44;5052935;28;20025;-81
2023/02/05 09:30:57;;;;;;;14.60;8.32;;;;;;;-2.20;71.57;100487.50;5052605;28;20033;-81
2023/02/05 09:33:22;;;;;;;11.00;6.00;;;;;;;-2.09;70.88;100489.06;5051685;28;20029;-80
2023/02/05 09:35:48;;;;;;;8.73;4.97;;;;;;;-2.02;70.49;100487.38;5052366;28;20086;-80
2023/02/05 09:38:16;;;;;;;13.27;7.32;;;;;;;-1.93;70.99;100493.66;5052386;28;20097;-80
2023/02/05 09:40:53;;;;;;;10.60;5.38;;;;;;;-1.90;71.30;100484.41;5052458;28;20055;-81
2023/02/05 09:43:22;;;;;;;9.07;4.78;;;;;;;-1.83;70.76;100482.75;5049990;28;20536;-81
2023/02/05 09:46:12;;;;;;;10.30;5.43;;;;;;;-1.88;70.44;100483.25;5052088;28;20548;-81
2023/02/05 09:48:48;;;;;;;10.65;5.18;;;;;;;-1.89;69.91;100480.69;5052500;28;20017;-81
2023/02/05 09:51:16;;;;;;;12.95;6.00;;;;;;;-1.88;70.25;100483.25;5052432;28;20731;-81
2023/02/05 09:53:46;;;;;;;11.30;5.97;;;;;;;-1.89;69.83;100478.88;5052047;28;20033;-81
2023/02/05 09:56:13;;;;;;;10.77;5.75;;;;;;;-1.88;70.09;100477.88;5051609;28;20024;-81
2023/02/05 09:58:42;;;;;;;10.48;5.13;;;;;;;-1.85;69.80;100479.38;5052428;28;20021;-81
2023/02/05 10:01:38;;;;;;;9.82;5.72;;;;;;;-1.88;69.71;100472.47;5052375;28;20021;-81
2023/02/05 10:04:06;;;;;;;10.48;5.60;;;;;;;-1.86;69.59;100475.00;5048469;28;20443;-83
2023/02/05 10:07:00;;;;;;;12.15;6.03;;;;;;;-1.85;69.84;100461.41;5051675;28;20066;-80
2023/02/05 10:09:53;;;;;;;8.80;4.70;;;;;;;-1.80;69.52;100453.66;5047167;28;20029;-80
2023/02/05 10:12:42;;;;;;;9.80;5.90;;;;;;;-1.74;69.62;100454.00;5049640;28;20107;-80
2023/02/05 10:15:45;;;;;;;8.60;4.53;;;;;;;-1.69;69.62;100457.03;5048841;28;20028;-80
2023/02/05 10:18:11;;;;;;;8.30;4.45;;;;;;;-1.65;69.71;100458.38;5050354;28;20115;-80
2023/02/05 10:21:10;;;;;;;9.65;5.28;;;;;;;-1.62;69.47;100458.03;5050566;28;20195;-81
2023/02/05 10:24:00;;;;;;;7.95;4.65;;;;;;;-1.66;69.27;100451.31;5033848;28;20043;-80
2023/02/05 10:26:41;;;;;;;10.85;6.40;;;;;;;-1.69;69.21;100451.66;5048364;28;20029;-80
2023/02/05 10:29:39;;;;;;;10.73;6.95;;;;;;;-1.69;68.95;100459.72;5049806;28;20489;-85
2023/02/05 10:32:14;;;;;;;15.25;9.27;;;;;;;-1.76;68.79;100453.31;5026754;28;20052;-85
2023/02/05 10:34:55;;;;;;;14.88;8.32;;;;;;;-1.80;69.06;100459.03;5049212;28;20098;-84
2023/02/05 10:37:34;;;;;;;14.55;8.10;;;;;;;-1.79;69.13;100459.88;5050278;28;20489;-84
2023/02/05 10:40:00;;;;;;;14.07;6.95;;;;;;;-1.76;69.06;100459.56;5047342;28;20029;-82
2023/02/05 10:42:30;;;;;;;13.18;7.78;;;;;;;-1.79;69.09;100459.88;5047923;28;20480;-80
2023/02/05 10:45:10;;;;;;;11.75;6.95;;;;;;;-1.82;68.81;100463.72;5049685;28;20070;-84
2023/02/05 10:47:42;;;;;;;;;;;;;;;-1.76;69.14;100458.69;5050200;28;20029;-87
2023/02/05 10:50:21;;;;;;;12.80;6.53;;;;;;;-1.75;68.83;100458.53;5050033;28;19913;-84
2023/02/05 10:52:49;;;;;;;8.57;5.40;;;;;;;-1.77;68.63;100451.63;5048972;28;20037;-83
2023/02/05 10:55:15;;;;;;;8.23;4.65;;;;;;;-1.82;68.74;100450.28;5031858;28;20036;-85
2023/02/05 10:57:41;;;;;;;10.20;6.28;;;;;;;-1.83;68.42;100439.69;5049739;28;20061;-86
2023/02/05 11:00:17;;;;;;;11.52;6.70;;;;;;;-1.84;68.32;100430.81;5049476;28;20110;-80
2023/02/05 11:02:47;;;;;;;11.98;5.90;;;;;;;-1.79;68.43;100435.66;5047974;28;20040;-85
2023/02/05 11:05:17;;;;;;;12.15;7.03;;;;;;;-1.72;68.33;100430.47;5048920;28;20029;-81
2023/02/05 11:07:45;;;;;;;8.70;5.53;;;;;;;-1.62;67.99;100430.28;5048234;28;20611;-79
2023/02/05 11:10:24;;;;;;;7.47;5.07;;;;;;;-1.55;67.91;100432.16;5049221;28;20052;-79
2023/02/05 11:12:52;;;;;;;8.27;5.50;;;;;;;-1.48;68.03;100426.09;5048894;28;20025;-81
2023/02/05 11:15:24;;;;;;;9.13;5.15;;;;;;;-1.44;68.15;100435.53;5049144;28;20025;-79
2023/02/05 11:18:05;;;;;;;9.95;4.97;;;;;;;-1.42;67.42;100446.94;5048358;28;20047;-81
2023/02/05 11:20:35;;;;;;;8.82;4.97;;;;;;;-1.41;67.33;100448.63;5049730;28;20033;-85
2023/02/05 11:23:21;;;;;;;11.77;5.90;;;;;;;-1.45;67.19;100444.59;5048838;28;20120;-85
2023/02/05 11:25:55;;;;;;;11.57;6.43;;;;;;;-1.47;67.17;100443.94;5048644;28;20033;-85
2023/02/05 11:28:34;;;;;;;13.43;6.40;;;;;;;-1.50;67.01;100454.03;5049331;28;20079;-84
2023/02/05 11:31:19;;;;;;;10.73;5.28;;;;;;;-1.52;67.15;100453.34;5047792;28;20033;-83